createdAt,value
2018-09-24T00:00:31.020Z,9.00
2018-09-24T00:01:30.999Z,14.90
2018-09-24T00:02:30.974Z,10.10
2018-09-24T00:03:30.967Z,10.80
2018-09-24T00:04:30.933Z,12.10
2018-09-24T00:05:30.926Z,9.60
2018-09-24T00:06:30.889Z,9.80
2018-09-24T00:07:30.871Z,8.20
2018-09-24T00:08:30.897Z,6.70
2018-09-24T00:09:30.840Z,10.60
2018-09-24T00:10:30.805Z,9.60
2018-09-24T00:11:30.786Z,13.50
2018-09-24T00:12:30.761Z,8.80
2018-09-24T00:13:30.739Z,11.60
2018-09-24T00:14:30.719Z,9.00
2018-09-24T00:15:30.703Z,12.70
2018-09-24T00:16:30.680Z,9.60
2018-09-24T00:17:30.751Z,10.50
2018-09-24T00:18:30.642Z,9.60
2018-09-24T00:19:30.616Z,9.40
2018-09-24T00:20:30.592Z,10.60
2018-09-24T00:21:30.576Z,9.30
2018-09-24T00:22:30.552Z,8.20
2018-09-24T00:23:30.529Z,11.20
2018-09-24T00:24:30.510Z,7.20
2018-09-24T00:25:30.486Z,9.50
2018-09-24T00:26:30.471Z,9.20
2018-09-24T00:27:30.445Z,10.20
2018-09-24T00:28:30.422Z,13.60
2018-09-24T00:29:30.403Z,12.80
2018-09-24T00:30:30.382Z,9.80
2018-09-24T00:31:30.373Z,11.70
2018-09-24T00:32:30.347Z,10.40
2018-09-24T00:33:30.318Z,8.90
2018-09-24T00:34:30.295Z,7.70
2018-09-24T00:35:30.284Z,8.10
2018-09-24T00:36:30.261Z,12.70
2018-09-24T00:37:30.232Z,11.20
2018-09-24T00:38:30.212Z,10.50
2018-09-24T00:39:30.189Z,8.90
2018-09-24T00:40:30.169Z,14.20
2018-09-24T00:41:30.147Z,10.40
2018-09-24T00:42:30.126Z,15.70
2018-09-24T00:43:30.135Z,7.40
2018-09-24T00:44:30.081Z,10.20
2018-09-24T00:45:30.067Z,5.60
2018-09-24T00:46:30.041Z,11.40
2018-09-24T00:47:30.020Z,15.60
2018-09-24T00:48:29.998Z,12.60
2018-09-24T00:49:29.977Z,11.00
2018-09-24T00:50:29.998Z,9.60
2018-09-24T00:51:29.934Z,10.90
2018-09-24T00:52:29.912Z,8.10
2018-09-24T00:53:29.940Z,10.80
2018-09-24T00:54:29.870Z,11.50
2018-09-24T00:55:29.847Z,11.60
2018-09-24T00:56:29.825Z,10.30
2018-09-24T00:57:29.814Z,12.90
2018-09-24T00:58:29.791Z,8.90
2018-09-24T00:59:29.780Z,11.30
2018-09-24T01:00:29.741Z,9.00
2018-09-24T01:01:29.719Z,10.10
2018-09-24T01:02:29.699Z,8.90
2018-09-24T01:03:29.678Z,11.30
2018-09-24T01:04:29.656Z,10.90
2018-09-24T01:05:29.634Z,9.20
2018-09-24T01:06:29.614Z,12.10
2018-09-24T01:07:29.595Z,11.10
2018-09-24T01:08:29.570Z,12.90
2018-09-24T01:09:29.558Z,12.60
2018-09-24T01:10:29.545Z,10.10
2018-09-24T01:11:29.505Z,11.90
2018-09-24T01:12:29.491Z,13.50
2018-09-24T01:13:29.463Z,11.50
2018-09-24T01:14:29.440Z,9.60
2018-09-24T01:15:29.474Z,10.00
2018-09-24T01:16:29.397Z,9.60
2018-09-24T01:17:29.378Z,8.20
2018-09-24T01:18:29.434Z,11.00
2018-09-24T01:19:29.334Z,11.70
2018-09-24T01:20:29.312Z,12.20
2018-09-24T01:21:29.295Z,13.10
2018-09-24T01:22:29.270Z,10.60
2018-09-24T01:23:29.253Z,10.30
2018-09-24T01:24:29.226Z,9.10
2018-09-24T01:25:29.207Z,12.00
2018-09-24T01:26:29.184Z,8.00
2018-09-24T01:27:29.163Z,8.90
2018-09-24T01:28:29.140Z,9.30
2018-09-24T01:29:29.173Z,17.70
2018-09-24T01:30:29.102Z,12.80
2018-09-24T01:31:29.079Z,9.20
2018-09-24T01:32:29.055Z,10.00
2018-09-24T01:33:29.034Z,11.80
2018-09-24T01:34:29.010Z,7.70
2018-09-24T01:35:28.993Z,9.70
2018-09-24T01:36:28.968Z,8.90
2018-09-24T01:37:28.951Z,11.50
2018-09-24T01:38:28.927Z,9.40
2018-09-24T01:39:28.905Z,9.50
2018-09-24T01:40:28.884Z,10.30
2018-09-24T01:41:28.861Z,10.10
2018-09-24T01:42:28.843Z,11.40
2018-09-24T01:43:28.819Z,11.50
2018-09-24T01:44:28.803Z,9.90
2018-09-24T01:45:28.774Z,10.30
2018-09-24T01:46:28.753Z,13.90
2018-09-24T01:47:28.733Z,10.30
2018-09-24T01:48:28.712Z,16.30
2018-09-24T01:49:28.690Z,7.70
2018-09-24T01:50:28.671Z,8.50
2018-09-24T01:51:28.652Z,9.40
2018-09-24T01:52:28.625Z,10.40
2018-09-24T01:53:28.602Z,11.10
2018-09-24T01:54:28.584Z,9.20
2018-09-24T01:55:28.560Z,10.90
2018-09-24T01:56:28.542Z,7.20
2018-09-24T01:57:28.517Z,9.30
2018-09-24T01:58:28.496Z,12.40
2018-09-24T01:59:28.492Z,15.70
2018-09-24T02:00:28.453Z,10.20
2018-09-24T02:01:28.430Z,6.40
2018-09-24T02:02:28.409Z,12.10
2018-09-24T02:03:28.387Z,8.50
2018-09-24T02:04:28.366Z,8.30
2018-09-24T02:05:28.344Z,12.70
2018-09-24T02:06:28.325Z,7.90
2018-09-24T02:07:28.301Z,8.00
2018-09-24T02:08:28.282Z,14.00
2018-09-24T02:09:28.262Z,6.40
2018-09-24T02:10:28.245Z,10.30
2018-09-24T02:11:28.222Z,10.60
2018-09-24T02:12:28.192Z,11.10
2018-09-24T02:13:28.171Z,9.20
2018-09-24T02:14:28.153Z,9.70
2018-09-24T02:15:28.129Z,14.70
2018-09-24T02:16:28.107Z,9.00
2018-09-24T02:17:28.086Z,11.20
2018-09-24T02:18:28.072Z,8.80
2018-09-24T02:19:28.047Z,11.70
2018-09-24T02:20:28.020Z,10.70
2018-09-24T02:21:28.075Z,13.20
2018-09-24T02:22:27.978Z,11.60
2018-09-24T02:23:27.968Z,13.30
2018-09-24T02:24:27.979Z,13.30
2018-09-24T02:25:27.921Z,8.30
2018-09-24T02:26:27.902Z,9.30
2018-09-24T02:27:27.873Z,13.50
2018-09-24T02:28:27.850Z,13.30
2018-09-24T02:29:27.825Z,11.20
2018-09-24T02:30:27.813Z,11.20
2018-09-24T02:31:27.783Z,17.60
2018-09-24T02:32:27.768Z,9.30
2018-09-24T02:33:27.742Z,9.90
2018-09-24T02:34:27.722Z,6.30
2018-09-24T02:35:27.699Z,11.70
2018-09-24T02:36:27.674Z,10.40
2018-09-24T02:37:27.653Z,5.40
2018-09-24T02:38:27.632Z,11.10
2018-09-24T02:39:27.612Z,10.30
2018-09-24T02:40:27.587Z,8.30
2018-09-24T02:41:27.570Z,15.10
2018-09-24T02:42:27.545Z,10.60
2018-09-24T02:43:27.521Z,11.10
2018-09-24T02:44:27.510Z,14.20
2018-09-24T02:45:27.481Z,9.80
2018-09-24T02:46:27.482Z,13.30
2018-09-24T02:47:27.437Z,12.00
2018-09-24T02:48:27.414Z,12.10
2018-09-24T02:49:27.392Z,8.80
2018-09-24T02:50:27.370Z,12.60
2018-09-24T02:51:27.349Z,9.80
2018-09-24T02:52:27.326Z,8.80
2018-09-24T02:53:27.310Z,10.20
2018-09-24T02:54:27.287Z,10.40
2018-09-24T02:55:27.260Z,12.30
2018-09-24T02:56:27.239Z,17.20
2018-09-24T02:57:27.220Z,9.30
2018-09-24T02:58:27.196Z,9.60
2018-09-24T02:59:27.173Z,7.30
2018-09-24T03:00:27.151Z,11.60
2018-09-24T03:01:27.219Z,10.20
2018-09-24T03:02:27.108Z,15.40
2018-09-24T03:03:27.089Z,12.10
2018-09-24T03:04:27.063Z,13.40
2018-09-24T03:05:27.047Z,16.60
2018-09-24T03:06:27.023Z,10.10
2018-09-24T03:07:26.999Z,7.90
2018-09-24T03:08:26.983Z,10.30
2018-09-24T03:09:26.962Z,7.90
2018-09-24T03:10:26.934Z,11.80
2018-09-24T03:11:26.916Z,14.50
2018-09-24T03:12:26.894Z,11.50
2018-09-24T03:13:26.870Z,10.80
2018-09-24T03:14:26.849Z,10.40
2018-09-24T03:15:26.833Z,13.90
2018-09-24T03:16:26.804Z,14.20
2018-09-24T03:17:26.783Z,9.70
2018-09-24T03:18:26.761Z,9.70
2018-09-24T03:19:26.739Z,16.50
2018-09-24T03:20:26.716Z,10.00
2018-09-24T03:21:26.694Z,11.60
2018-09-24T03:22:26.681Z,10.00
2018-09-24T03:23:26.650Z,11.10
2018-09-24T03:24:26.627Z,10.00
2018-09-24T03:25:26.619Z,9.30
2018-09-24T03:26:26.668Z,11.60
2018-09-24T03:27:26.572Z,13.60
2018-09-24T03:28:26.544Z,15.20
2018-09-24T03:29:26.519Z,8.30
2018-09-24T03:30:26.499Z,13.90
2018-09-24T03:31:26.478Z,10.90
2018-09-24T03:32:26.464Z,14.40
2018-09-24T03:33:26.434Z,10.90
2018-09-24T03:34:26.412Z,17.90
2018-09-24T03:35:26.389Z,12.80
2018-09-24T03:36:26.366Z,9.10
2018-09-24T03:37:26.345Z,13.80
2018-09-24T03:38:26.497Z,7.60
2018-09-24T03:39:26.302Z,13.60
2018-09-24T03:40:26.279Z,10.20
2018-09-24T03:41:26.362Z,12.60
2018-09-24T03:42:26.237Z,11.70
2018-09-24T03:43:26.217Z,7.90
2018-09-24T03:44:26.196Z,12.90
2018-09-24T03:45:26.169Z,11.20
2018-09-24T03:46:26.147Z,11.80
2018-09-24T03:47:26.125Z,9.90
2018-09-24T03:48:26.108Z,10.00
2018-09-24T03:49:26.145Z,10.30
2018-09-24T03:50:26.061Z,11.60
2018-09-24T03:51:26.045Z,11.60
2018-09-24T03:52:26.024Z,13.50
2018-09-24T03:53:25.995Z,11.80
2018-09-24T03:54:25.977Z,15.40
2018-09-24T03:55:25.951Z,14.10
2018-09-24T03:56:25.932Z,10.30
2018-09-24T03:57:25.906Z,10.40
2018-09-24T03:58:25.885Z,8.20
2018-09-24T03:59:25.871Z,10.70
2018-09-24T04:00:25.842Z,7.70
2018-09-24T04:01:25.819Z,12.50
2018-09-24T04:02:25.798Z,9.90
2018-09-24T04:03:25.781Z,10.20
2018-09-24T04:04:25.788Z,7.70
2018-09-24T04:05:25.735Z,14.00
2018-09-24T04:06:25.710Z,10.80
2018-09-24T04:07:25.692Z,10.80
2018-09-24T04:08:25.675Z,12.40
2018-09-24T04:09:25.726Z,9.20
2018-09-24T04:10:25.625Z,10.70
2018-09-24T04:11:25.611Z,7.50
2018-09-24T04:12:25.582Z,9.40
2018-09-24T04:13:25.561Z,6.40
2018-09-24T04:14:25.640Z,11.30
2018-09-24T04:15:25.525Z,10.00
2018-09-24T04:16:25.499Z,7.60
2018-09-24T04:17:25.473Z,14.10
2018-09-24T04:18:25.451Z,16.30
2018-09-24T04:19:25.432Z,13.00
2018-09-24T04:20:25.410Z,8.90
2018-09-24T04:21:25.384Z,10.80
2018-09-24T04:22:25.374Z,10.80
2018-09-24T04:23:25.346Z,10.60
2018-09-24T04:24:25.316Z,14.10
2018-09-24T04:25:25.295Z,8.80
2018-09-24T04:26:25.436Z,7.90
2018-09-24T04:27:25.251Z,8.00
2018-09-24T04:28:25.229Z,13.50
2018-09-24T04:29:25.207Z,13.00
2018-09-24T04:30:25.184Z,8.40
2018-09-24T04:31:25.172Z,7.70
2018-09-24T04:32:25.143Z,11.50
2018-09-24T04:33:25.120Z,11.00
2018-09-24T04:34:25.101Z,14.90
2018-09-24T04:35:25.075Z,9.80
2018-09-24T04:36:25.053Z,11.20
2018-09-24T04:37:25.031Z,10.90
2018-09-24T04:38:25.012Z,18.30
2018-09-24T04:39:25.072Z,8.50
2018-09-24T04:40:24.969Z,9.30
2018-09-24T04:41:24.943Z,10.00
2018-09-24T04:42:24.922Z,7.90
2018-09-24T04:43:24.902Z,10.40
2018-09-24T04:44:24.928Z,11.70
2018-09-24T04:45:24.857Z,11.30
2018-09-24T04:46:24.839Z,13.70
2018-09-24T04:47:24.815Z,10.20
2018-09-24T04:48:24.790Z,15.60
2018-09-24T04:49:24.769Z,10.70
2018-09-24T04:50:24.750Z,10.50
2018-09-24T04:51:24.724Z,8.00
2018-09-24T04:52:24.702Z,12.70
2018-09-24T04:53:24.682Z,11.60
2018-09-24T04:54:24.660Z,8.80
2018-09-24T04:55:24.636Z,10.00
2018-09-24T04:56:24.613Z,7.80
2018-09-24T04:57:24.591Z,13.00
2018-09-24T04:58:24.570Z,9.20
2018-09-24T04:59:24.555Z,13.00
2018-09-24T05:00:24.525Z,8.90
2018-09-24T05:01:24.509Z,12.40
2018-09-24T05:02:24.485Z,12.10
2018-09-24T05:03:24.462Z,13.60
2018-09-24T05:04:24.438Z,10.90
2018-09-24T05:05:24.419Z,13.60
2018-09-24T05:06:24.396Z,11.10
2018-09-24T05:07:24.377Z,15.50
2018-09-24T05:08:24.350Z,11.90
2018-09-24T05:09:24.329Z,10.10
2018-09-24T05:10:24.310Z,9.40
2018-09-24T05:11:24.286Z,8.00
2018-09-24T05:12:24.263Z,8.00
2018-09-24T05:13:24.241Z,9.10
2018-09-24T05:14:24.220Z,10.20
2018-09-24T05:15:24.200Z,9.00
2018-09-24T05:16:24.198Z,14.70
2018-09-24T05:17:24.156Z,10.10
2018-09-24T05:18:24.132Z,7.60
2018-09-24T05:19:24.108Z,12.60
2018-09-24T05:20:24.094Z,12.00
2018-09-24T05:21:24.064Z,16.50
2018-09-24T05:22:24.047Z,11.90
2018-09-24T05:23:24.024Z,11.40
2018-09-24T05:24:24.005Z,9.90
2018-09-24T05:25:23.976Z,8.20
2018-09-24T05:26:23.963Z,7.40
2018-09-24T05:27:23.961Z,12.80
2018-09-24T05:28:23.920Z,10.50
2018-09-24T05:29:23.890Z,12.70
2018-09-24T05:30:23.868Z,9.90
2018-09-24T05:31:23.848Z,10.70
2018-09-24T05:32:23.836Z,14.70
2018-09-24T05:33:23.798Z,11.10
2018-09-24T05:34:23.818Z,8.70
2018-09-24T05:35:23.756Z,14.00
2018-09-24T05:36:23.733Z,10.30
2018-09-24T05:37:23.732Z,14.70
2018-09-24T05:38:23.689Z,10.20
2018-09-24T05:39:23.768Z,10.00
2018-09-24T05:40:23.646Z,12.30
2018-09-24T05:41:23.662Z,7.50
2018-09-24T05:42:23.609Z,11.50
2018-09-24T05:43:23.578Z,13.30
2018-09-24T05:44:23.557Z,9.30
2018-09-24T05:45:23.534Z,12.60
2018-09-24T05:46:23.511Z,12.00
2018-09-24T05:47:23.489Z,11.00
2018-09-24T05:48:23.466Z,12.40
2018-09-24T05:49:23.449Z,10.40
2018-09-24T05:50:23.423Z,14.90
2018-09-24T05:51:23.409Z,11.50
2018-09-24T05:52:23.380Z,13.90
2018-09-24T05:53:23.356Z,13.00
2018-09-24T05:54:23.399Z,12.90
2018-09-24T05:55:23.315Z,12.10
2018-09-24T05:56:23.301Z,15.20
2018-09-24T05:57:23.269Z,14.30
2018-09-24T05:58:23.250Z,13.90
2018-09-24T05:59:23.231Z,15.70
2018-09-24T06:00:23.205Z,15.70
2018-09-24T06:01:23.337Z,8.90
2018-09-24T06:02:23.160Z,12.60
2018-09-24T06:03:23.142Z,10.30
2018-09-24T06:04:23.119Z,9.50
2018-09-24T06:05:23.097Z,9.70
2018-09-24T06:06:23.077Z,15.40
2018-09-24T06:07:23.058Z,14.20
2018-09-24T06:08:23.029Z,14.50
2018-09-24T06:09:23.010Z,13.40
2018-09-24T06:10:22.990Z,9.00
2018-09-24T06:11:22.968Z,13.10
2018-09-24T06:12:22.945Z,10.20
2018-09-24T06:13:22.921Z,14.10
2018-09-24T06:14:22.901Z,9.90
2018-09-24T06:15:22.881Z,12.30
2018-09-24T06:16:22.859Z,13.70
2018-09-24T06:17:22.835Z,5.70
2018-09-24T06:18:22.816Z,9.80
2018-09-24T06:19:22.804Z,11.50
2018-09-24T06:20:22.770Z,12.80
2018-09-24T06:21:22.750Z,10.40
2018-09-24T06:22:22.742Z,9.90
2018-09-24T06:23:22.705Z,9.20
2018-09-24T06:24:22.683Z,10.30
2018-09-24T06:25:22.664Z,8.80
2018-09-24T06:26:22.641Z,11.00
2018-09-24T06:27:22.618Z,10.90
2018-09-24T06:28:22.675Z,13.40
2018-09-24T06:29:22.575Z,13.20
2018-09-24T06:30:22.554Z,10.90
2018-09-24T06:31:22.531Z,11.40
2018-09-24T06:32:22.509Z,9.10
2018-09-24T06:33:22.490Z,10.90
2018-09-24T06:34:22.559Z,7.00
2018-09-24T06:35:22.454Z,15.40
2018-09-24T06:36:22.424Z,9.30
2018-09-24T06:37:22.403Z,9.10
2018-09-24T06:38:22.381Z,11.50
2018-09-24T06:39:22.367Z,8.80
2018-09-24T06:40:22.340Z,8.90
2018-09-24T06:41:22.317Z,10.80
2018-09-24T06:42:22.296Z,12.50
2018-09-24T06:43:22.277Z,11.50
2018-09-24T06:44:22.259Z,13.50
2018-09-24T06:45:22.232Z,11.70
2018-09-24T06:46:22.229Z,12.40
2018-09-24T06:47:22.191Z,8.10
2018-09-24T06:48:22.171Z,12.30
2018-09-24T06:49:22.148Z,12.30
2018-09-24T06:50:22.124Z,11.70
2018-09-24T06:51:22.105Z,7.60
2018-09-24T06:52:22.080Z,11.60
2018-09-24T06:53:22.059Z,9.20
2018-09-24T06:54:22.036Z,14.30
2018-09-24T06:55:22.018Z,13.20
2018-09-24T06:56:22.046Z,10.90
2018-09-24T06:57:21.981Z,12.80
2018-09-24T06:58:21.952Z,10.40
2018-09-24T06:59:21.932Z,12.40
2018-09-24T07:00:21.909Z,14.00
2018-09-24T07:01:21.888Z,10.50
2018-09-24T07:02:21.867Z,13.20
2018-09-24T07:03:21.847Z,9.30
2018-09-24T07:04:21.929Z,11.10
2018-09-24T07:05:21.885Z,13.00
2018-09-24T07:06:21.804Z,11.10
2018-09-24T07:07:21.761Z,14.30
2018-09-24T07:08:21.737Z,8.50
2018-09-24T07:09:21.716Z,8.30
2018-09-24T07:10:21.696Z,8.60
2018-09-24T07:11:21.716Z,11.20
2018-09-24T07:12:21.654Z,9.10
2018-09-24T07:13:21.632Z,9.40
2018-09-24T07:14:21.620Z,12.80
2018-09-24T07:15:21.592Z,12.20
2018-09-24T07:16:21.569Z,10.20
2018-09-24T07:17:21.550Z,7.40
2018-09-24T07:18:21.526Z,11.40
2018-09-24T07:19:21.513Z,12.40
2018-09-24T07:20:21.484Z,11.70
2018-09-24T07:21:21.525Z,7.00
2018-09-24T07:22:21.442Z,10.70
2018-09-24T07:23:21.422Z,11.80
2018-09-24T07:24:21.400Z,11.80
2018-09-24T07:25:21.379Z,11.50
2018-09-24T07:26:21.360Z,8.70
2018-09-24T07:27:21.336Z,11.30
2018-09-24T07:28:21.368Z,9.40
2018-09-24T07:29:21.394Z,11.70
2018-09-24T07:30:21.274Z,13.80
2018-09-24T07:31:21.255Z,9.50
2018-09-24T07:32:21.235Z,8.50
2018-09-24T07:33:21.260Z,11.80
2018-09-24T07:34:21.194Z,10.00
2018-09-24T07:35:21.218Z,10.70
2018-09-24T07:36:21.147Z,14.60
2018-09-24T07:37:21.126Z,8.90
2018-09-24T07:38:21.107Z,8.30
2018-09-24T07:39:21.086Z,6.90
2018-09-24T07:40:21.071Z,8.60
2018-09-24T07:41:21.044Z,11.40
2018-09-24T07:42:21.058Z,9.00
2018-09-24T07:43:21.063Z,10.20
2018-09-24T07:44:20.981Z,17.50
2018-09-24T07:45:20.968Z,13.10
2018-09-24T07:46:20.941Z,13.80
2018-09-24T07:47:20.919Z,9.30
2018-09-24T07:48:20.899Z,10.80
2018-09-24T07:49:20.881Z,18.10
2018-09-24T07:50:20.859Z,10.40
2018-09-24T07:51:20.835Z,11.70
2018-09-24T07:52:20.825Z,12.60
2018-09-24T07:53:20.801Z,10.80
2018-09-24T07:54:20.778Z,8.10
2018-09-24T07:55:20.816Z,8.70
2018-09-24T07:56:20.791Z,10.60
2018-09-24T07:57:20.715Z,9.20
2018-09-24T07:58:20.692Z,7.00
2018-09-24T07:59:20.673Z,9.40
2018-09-24T08:00:20.661Z,8.20
2018-09-24T08:01:20.635Z,7.80
2018-09-24T08:02:20.611Z,10.30
2018-09-24T08:03:20.592Z,7.50
2018-09-24T08:04:20.570Z,12.40
2018-09-24T08:05:20.557Z,10.60
2018-09-24T08:06:20.536Z,11.90
2018-09-24T08:07:20.525Z,9.90
2018-09-24T08:08:20.488Z,7.30
2018-09-24T08:09:20.472Z,11.00
2018-09-24T08:10:20.453Z,11.30
2018-09-24T08:11:20.428Z,9.40
2018-09-24T08:12:20.410Z,10.20
2018-09-24T08:13:20.417Z,12.40
2018-09-24T08:14:20.408Z,7.80
2018-09-24T08:15:20.350Z,8.60
2018-09-24T08:16:20.330Z,7.90
2018-09-24T08:17:20.314Z,5.60
2018-09-24T08:18:20.301Z,11.90
2018-09-24T08:19:20.271Z,11.30
2018-09-24T08:20:20.248Z,8.80
2018-09-24T08:21:20.249Z,9.50
2018-09-24T08:22:20.210Z,7.50
2018-09-24T08:23:20.205Z,8.30
2018-09-24T08:24:20.179Z,12.00
2018-09-24T08:25:20.150Z,9.20
2018-09-24T08:26:20.133Z,12.40
2018-09-24T08:27:20.127Z,11.60
2018-09-24T08:28:20.097Z,5.60
2018-09-24T08:29:20.072Z,8.60
2018-09-24T08:30:20.060Z,8.60
2018-09-24T08:31:20.033Z,6.00
2018-09-24T08:32:20.017Z,8.80
2018-09-24T08:33:19.999Z,11.80
2018-09-24T08:34:19.977Z,12.70
2018-09-24T08:35:19.972Z,7.10
2018-09-24T08:36:19.966Z,7.50
2018-09-24T08:37:19.919Z,9.60
2018-09-24T08:38:19.907Z,5.60
2018-09-24T08:39:19.888Z,8.80
2018-09-24T08:40:19.869Z,8.60
2018-09-24T08:41:19.842Z,11.40
2018-09-24T08:42:19.821Z,9.00
2018-09-24T08:43:19.814Z,7.90
2018-09-24T08:44:19.787Z,7.00
2018-09-24T08:45:19.765Z,9.80
2018-09-24T08:46:19.757Z,6.90
2018-09-24T08:47:19.728Z,7.40
2018-09-24T08:48:19.709Z,8.30
2018-09-24T08:49:19.689Z,9.50
2018-09-24T08:50:19.674Z,7.20
2018-09-24T08:51:19.657Z,7.20
2018-09-24T08:52:19.638Z,8.20
2018-09-24T08:53:19.672Z,6.20
2018-09-24T08:54:19.653Z,8.90
2018-09-24T08:55:19.576Z,9.00
2018-09-24T08:56:19.561Z,9.10
2018-09-24T08:57:19.622Z,6.10
2018-09-24T08:58:19.524Z,23.10
2018-09-24T08:59:19.504Z,18.10
2018-09-24T09:00:19.492Z,5.70
2018-09-24T09:01:19.476Z,6.00
2018-09-24T09:02:19.447Z,10.00
2018-09-24T09:03:19.431Z,9.70
2018-09-24T09:04:19.412Z,9.50
2018-09-24T09:05:19.400Z,8.70
2018-09-24T09:06:19.414Z,7.10
2018-09-24T09:07:19.364Z,10.80
2018-09-24T09:08:19.407Z,9.80
2018-09-24T09:09:19.329Z,9.40
2018-09-24T09:10:19.320Z,8.90
2018-09-24T09:11:19.297Z,8.50
2018-09-24T09:12:19.282Z,10.00
2018-09-24T09:13:19.268Z,8.20
2018-09-24T09:14:19.267Z,9.10
2018-09-24T09:15:19.244Z,8.20
2018-09-24T09:16:19.250Z,6.80
2018-09-24T09:17:19.207Z,9.10
2018-09-24T09:18:19.192Z,13.40
2018-09-24T09:19:19.177Z,6.70
2018-09-24T09:20:19.171Z,8.80
2018-09-24T09:21:19.157Z,8.60
2018-09-24T09:22:19.146Z,8.60
2018-09-24T09:23:19.129Z,8.70
2018-09-24T09:24:19.114Z,10.70
2018-09-24T09:25:19.101Z,11.50
2018-09-24T09:26:19.088Z,9.70
2018-09-24T09:27:19.079Z,7.80
2018-09-24T09:28:19.049Z,8.70
2018-09-24T09:29:19.083Z,9.40
2018-09-24T09:30:19.023Z,8.40
2018-09-24T09:31:19.005Z,7.90
2018-09-24T09:32:18.996Z,8.10
2018-09-24T09:33:18.976Z,11.00
2018-09-24T09:34:18.967Z,8.10
2018-09-24T09:35:19.031Z,7.40
2018-09-24T09:36:18.942Z,6.10
2018-09-24T09:37:18.926Z,9.10
2018-09-24T09:38:18.905Z,7.40
2018-09-24T09:39:18.891Z,7.20
2018-09-24T09:40:18.877Z,8.40
2018-09-24T09:41:18.864Z,7.30
2018-09-24T09:42:18.859Z,9.70
2018-09-24T09:43:18.943Z,5.70
2018-09-24T09:44:18.829Z,7.40
2018-09-24T09:45:18.810Z,6.80
2018-09-24T09:46:18.796Z,6.90
2018-09-24T09:47:18.795Z,4.90
2018-09-24T09:48:18.773Z,8.20
2018-09-24T09:49:18.760Z,8.90
2018-09-24T09:50:18.745Z,5.30
2018-09-24T09:51:18.734Z,6.90
2018-09-24T09:52:18.723Z,7.20
2018-09-24T09:53:18.713Z,8.40
2018-09-24T09:54:18.704Z,11.60
2018-09-24T09:55:18.694Z,9.00
2018-09-24T09:56:18.822Z,6.50
2018-09-24T09:57:18.664Z,5.50
2018-09-24T09:58:18.660Z,5.00
2018-09-24T09:59:18.672Z,4.70
2018-09-24T10:00:18.625Z,10.40
2018-09-24T10:01:18.615Z,6.30
2018-09-24T10:02:18.608Z,8.40
2018-09-24T10:03:18.607Z,5.10
2018-09-24T10:04:18.583Z,8.20
2018-09-24T10:05:18.577Z,9.30
2018-09-24T10:06:18.554Z,7.40
2018-09-24T10:07:18.566Z,8.00
2018-09-24T10:08:18.530Z,8.50
2018-09-24T10:09:18.519Z,4.80
2018-09-24T10:10:18.509Z,5.00
2018-09-24T10:11:18.569Z,5.40
2018-09-24T10:12:18.485Z,5.90
2018-09-24T10:13:18.472Z,6.30
2018-09-24T10:14:18.458Z,7.40
2018-09-24T10:15:18.445Z,4.60
2018-09-24T10:16:18.439Z,6.20
2018-09-24T10:17:18.421Z,6.50
2018-09-24T10:18:18.410Z,7.00
2018-09-24T10:19:18.411Z,5.60
2018-09-24T10:20:18.494Z,5.00
2018-09-24T10:21:18.372Z,7.70
2018-09-24T10:22:18.368Z,8.30
2018-09-24T10:23:18.354Z,8.00
2018-09-24T10:24:18.339Z,7.00
2018-09-24T10:25:18.327Z,8.50
2018-09-24T10:26:18.311Z,6.60
2018-09-24T10:27:18.303Z,3.20
2018-09-24T10:28:18.285Z,5.80
2018-09-24T10:29:18.275Z,4.60
2018-09-24T10:30:18.263Z,5.90
2018-09-24T10:31:18.269Z,8.80
2018-09-24T10:32:18.237Z,6.20
2018-09-24T10:33:18.226Z,5.50
2018-09-24T10:34:18.229Z,6.00
2018-09-24T10:35:18.222Z,10.00
2018-09-24T10:36:19.411Z,4.70
2018-09-24T10:37:18.183Z,8.40
2018-09-24T10:38:18.174Z,5.20
2018-09-24T10:39:18.213Z,7.00
2018-09-24T10:40:18.149Z,5.30
2018-09-24T10:41:18.137Z,7.90
2018-09-24T10:42:18.138Z,5.60
2018-09-24T10:43:18.118Z,7.00
2018-09-24T10:44:18.108Z,7.70
2018-09-24T10:45:18.095Z,22.80
2018-09-24T10:46:18.094Z,11.60
2018-09-24T10:47:18.076Z,22.30
2018-09-24T10:48:18.064Z,31.40
2018-09-24T10:49:18.054Z,3.90
2018-09-24T10:50:18.050Z,6.50
2018-09-24T10:51:18.032Z,12.60
2018-09-24T10:52:18.024Z,22.10
2018-09-24T10:53:18.007Z,21.10
2018-09-24T10:54:17.994Z,8.00
2018-09-24T10:55:17.983Z,5.80
2018-09-24T10:56:17.969Z,8.10
2018-09-24T10:57:17.958Z,72.20
2018-09-24T10:58:17.948Z,46.50
2018-09-24T10:59:17.943Z,63.00
2018-09-24T11:00:18.010Z,47.30
2018-09-24T11:01:17.906Z,38.40
2018-09-24T11:02:17.893Z,19.70
2018-09-24T11:03:17.889Z,41.80
2018-09-24T11:04:17.868Z,20.30
2018-09-24T11:05:17.855Z,27.30
2018-09-24T11:06:17.854Z,39.20
2018-09-24T11:07:17.841Z,16.50
2018-09-24T11:08:17.822Z,13.80
2018-09-24T11:09:17.809Z,15.90
2018-09-24T11:10:17.850Z,13.20
2018-09-24T11:11:17.783Z,5.60
2018-09-24T11:12:17.766Z,6.20
2018-09-24T11:13:17.748Z,6.70
2018-09-24T11:14:17.747Z,7.20
2018-09-24T11:15:17.721Z,7.60
2018-09-24T11:16:17.942Z,8.80
2018-09-24T11:17:17.874Z,6.50
2018-09-24T11:18:17.681Z,5.60
2018-09-24T11:19:17.670Z,6.40
2018-09-24T11:20:17.675Z,4.70
2018-09-24T11:21:17.644Z,5.90
2018-09-24T11:22:17.641Z,5.10
2018-09-24T11:23:17.630Z,6.00
2018-09-24T11:24:17.611Z,6.30
2018-09-24T11:25:17.605Z,6.60
2018-09-24T11:27:17.576Z,6.50
2018-09-24T11:28:17.581Z,6.70
2018-09-24T11:29:17.606Z,5.50
2018-09-24T11:30:17.539Z,9.10
2018-09-24T11:31:17.533Z,9.80
2018-09-24T11:32:17.525Z,5.10
2018-09-24T11:33:17.513Z,7.10
2018-09-24T11:34:17.495Z,4.40
2018-09-24T11:35:17.481Z,7.30
2018-09-24T11:36:17.471Z,6.50
2018-09-24T11:37:17.460Z,6.60
2018-09-24T11:38:17.446Z,5.70
2018-09-24T11:39:17.452Z,6.70
2018-09-24T11:40:17.419Z,10.60
2018-09-24T11:41:17.414Z,6.10
2018-09-24T11:42:17.396Z,5.40
2018-09-24T11:43:17.405Z,8.00
2018-09-24T11:44:17.377Z,8.00
2018-09-24T11:45:17.363Z,5.30
2018-09-24T11:46:17.345Z,4.10
2018-09-24T11:47:17.343Z,3.90
2018-09-24T11:48:17.317Z,5.40
2018-09-24T11:49:17.304Z,8.50
2018-09-24T11:50:17.291Z,5.20
2018-09-24T11:51:17.278Z,6.10
2018-09-24T11:52:17.272Z,7.50
2018-09-24T11:53:17.249Z,5.20
2018-09-24T11:54:17.237Z,5.50
2018-09-24T11:55:17.233Z,6.60
2018-09-24T11:56:17.279Z,5.30
2018-09-24T11:57:17.196Z,5.90
2018-09-24T11:58:17.193Z,6.30
2018-09-24T11:59:17.181Z,7.30
2018-09-24T12:00:17.155Z,5.40
2018-09-24T12:01:17.152Z,5.50
2018-09-24T12:02:17.160Z,7.40
2018-09-24T12:03:17.119Z,8.40
2018-09-24T12:04:17.105Z,8.70
2018-09-24T12:05:17.087Z,9.60
2018-09-24T12:06:17.073Z,8.30
2018-09-24T12:07:17.067Z,7.90
2018-09-24T12:08:17.045Z,6.70
2018-09-24T12:09:17.040Z,6.10
2018-09-24T12:10:17.047Z,7.30
2018-09-24T12:11:17.005Z,6.40
2018-09-24T12:12:16.999Z,5.00
2018-09-24T12:13:16.979Z,6.90
2018-09-24T12:14:16.970Z,5.40
2018-09-24T12:15:16.976Z,5.40
2018-09-24T12:16:16.937Z,7.00
2018-09-24T12:17:16.928Z,5.90
2018-09-24T12:18:16.915Z,6.90
2018-09-24T12:19:16.897Z,6.60
2018-09-24T12:20:16.877Z,4.50
2018-09-24T12:21:16.922Z,4.90
2018-09-24T12:22:16.849Z,5.40
2018-09-24T12:23:16.835Z,7.10
2018-09-24T12:24:16.832Z,6.10
2018-09-24T12:25:16.807Z,10.30
2018-09-24T12:26:16.790Z,11.00
2018-09-24T12:27:16.775Z,15.40
2018-09-24T12:28:16.761Z,10.50
2018-09-24T12:29:16.754Z,5.80
2018-09-24T12:30:16.737Z,12.90
2018-09-24T12:31:16.731Z,6.50
2018-09-24T12:32:16.700Z,9.00
2018-09-24T12:33:16.704Z,8.50
2018-09-24T12:34:16.706Z,6.90
2018-09-24T12:35:16.659Z,5.60
2018-09-24T12:36:16.637Z,7.40
2018-09-24T12:37:16.623Z,8.50
2018-09-24T12:38:16.608Z,5.70
2018-09-24T12:39:16.630Z,6.00
2018-09-24T12:40:16.584Z,6.80
2018-09-24T12:41:16.559Z,6.10
2018-09-24T12:42:16.546Z,6.80
2018-09-24T12:43:16.536Z,6.30
2018-09-24T12:44:16.512Z,5.10
2018-09-24T12:45:16.650Z,5.90
2018-09-24T12:46:16.483Z,5.80
2018-09-24T12:47:16.463Z,6.00
2018-09-24T12:48:16.507Z,6.30
2018-09-24T12:49:16.433Z,4.60
2018-09-24T12:50:16.416Z,6.00
2018-09-24T12:51:16.400Z,4.70
2018-09-24T12:52:16.394Z,5.00
2018-09-24T12:53:16.377Z,5.30
2018-09-24T12:54:16.354Z,6.70
2018-09-24T12:55:16.343Z,7.50
2018-09-24T12:56:16.320Z,7.10
2018-09-24T12:57:16.304Z,4.10
2018-09-24T12:58:16.288Z,8.70
2018-09-24T12:59:16.271Z,7.20
2018-09-24T13:00:16.255Z,6.70
2018-09-24T13:01:16.239Z,9.00
2018-09-24T13:02:16.223Z,6.20
2018-09-24T13:03:16.210Z,7.40
2018-09-24T13:04:16.205Z,8.00
2018-09-24T13:05:16.178Z,6.50
2018-09-24T13:06:16.161Z,9.00
2018-09-24T13:07:16.171Z,8.60